createdAt,value
2022-09-27T00:01:01.008Z,2.80
2022-09-27T00:03:29.274Z,3.27
2022-09-27T00:06:29.493Z,2.83
2022-09-27T00:08:57.028Z,3.20
2022-09-27T00:11:28.076Z,3.17
2022-09-27T00:13:56.392Z,3.17
2022-09-27T00:16:25.660Z,3.60
2022-09-27T00:18:52.653Z,2.23
2022-09-27T00:21:20.129Z,1.90
2022-09-27T00:23:46.851Z,2.23
2022-09-27T00:26:14.026Z,2.80
2022-09-27T00:28:41.466Z,3.13
2022-09-27T00:31:20.943Z,3.07
2022-09-27T00:33:50.700Z,2.67
2022-09-27T00:36:18.492Z,2.30
2022-09-27T00:38:45.446Z,1.63
2022-09-27T00:41:25.305Z,2.73
2022-09-27T00:43:54.864Z,2.10
2022-09-27T00:46:39.678Z,2.73
2022-09-27T00:49:25.413Z,2.60
2022-09-27T00:52:02.413Z,2.50
2022-09-27T00:54:30.651Z,2.53
2022-09-27T00:56:59.545Z,2.10
2022-09-27T00:59:37.251Z,1.80
2022-09-27T01:02:06.333Z,2.00
2022-09-27T01:04:34.685Z,3.07
2022-09-27T01:07:01.365Z,3.53
2022-09-27T01:09:29.270Z,2.47
2022-09-27T01:12:22.315Z,2.50
2022-09-27T01:15:27.582Z,2.43
2022-09-27T01:18:23.937Z,2.00
2022-09-27T01:21:28.603Z,1.70
2022-09-27T01:24:28.725Z,1.70
2022-09-27T01:27:04.425Z,0.97
2022-09-27T01:29:55.767Z,1.13
2022-09-27T01:33:00.796Z,1.33
2022-09-27T01:35:58.885Z,0.93
2022-09-27T01:38:42.549Z,1.47
2022-09-27T01:41:25.874Z,2.33
2022-09-27T01:44:38.597Z,2.47
2022-09-27T01:47:21.474Z,1.33
2022-09-27T01:50:02.794Z,2.37
2022-09-27T01:52:43.266Z,2.03
2022-09-27T01:55:14.643Z,2.07
2022-09-27T01:58:12.429Z,1.80
2022-09-27T02:00:42.756Z,1.87
2022-09-27T02:03:14.651Z,2.77
2022-09-27T02:06:12.973Z,1.33
2022-09-27T02:09:48.859Z,1.70
2022-09-27T02:12:25.949Z,2.03
2022-09-27T02:15:04.146Z,2.57
2022-09-27T02:17:46.205Z,1.07
2022-09-27T02:20:30.962Z,1.90
2022-09-27T02:23:27.862Z,3.03
2022-09-27T02:26:17.640Z,1.10
2022-09-27T02:29:01.649Z,2.87
2022-09-27T02:31:34.837Z,1.57
2022-09-27T02:34:13.917Z,1.80
2022-09-27T02:36:41.233Z,2.23
2022-09-27T02:39:08.716Z,1.20
2022-09-27T02:41:36.068Z,3.17
2022-09-27T02:44:08.453Z,3.37
2022-09-27T02:46:48.670Z,3.13
2022-09-27T02:49:45.017Z,3.63
2022-09-27T02:52:59.529Z,2.80
2022-09-27T02:56:13.253Z,2.47
2022-09-27T02:59:33.977Z,1.93
2022-09-27T03:02:33.822Z,1.77
2022-09-27T03:05:33.797Z,1.87
2022-09-27T03:08:01.539Z,1.87
2022-09-27T03:10:29.870Z,1.63
2022-09-27T03:12:58.633Z,1.70
2022-09-27T03:15:25.610Z,2.00
2022-09-27T03:18:18.835Z,2.10
2022-09-27T03:21:14.634Z,1.57
2022-09-27T03:23:41.322Z,1.93
2022-09-27T03:26:12.727Z,1.60
2022-09-27T03:28:40.369Z,2.03
2022-09-27T03:31:07.233Z,3.97
2022-09-27T03:33:50.494Z,1.13
2022-09-27T03:36:17.956Z,2.60
2022-09-27T03:38:44.810Z,2.73
2022-09-27T03:41:16.583Z,0.60
2022-09-27T03:43:43.905Z,1.73
2022-09-27T03:46:10.622Z,1.20
2022-09-27T03:48:37.613Z,1.07
2022-09-27T03:51:05.048Z,1.63
2022-09-27T03:53:31.782Z,2.00
2022-09-27T03:55:58.792Z,1.63
2022-09-27T03:58:25.670Z,1.93
2022-09-27T04:00:52.345Z,0.97
2022-09-27T04:03:19.808Z,1.67
2022-09-27T04:06:09.536Z,1.53
2022-09-27T04:08:42.935Z,1.63
2022-09-27T04:11:10.924Z,1.10
2022-09-27T04:13:39.572Z,1.23
2022-09-27T04:16:07.990Z,2.03
2022-09-27T04:18:40.741Z,2.73
2022-09-27T04:21:42.811Z,1.33
2022-09-27T04:24:11.880Z,1.27
2022-09-27T04:26:41.889Z,1.77
2022-09-27T04:29:13.518Z,1.87
2022-09-27T04:31:47.658Z,2.27
2022-09-27T04:35:08.248Z,2.30
2022-09-27T04:37:36.868Z,1.37
2022-09-27T04:40:05.201Z,2.17
2022-09-27T04:42:34.461Z,1.37
2022-09-27T04:45:01.230Z,1.83
2022-09-27T04:47:28.413Z,1.73
2022-09-27T04:49:55.166Z,1.77
2022-09-27T04:52:21.864Z,1.83
2022-09-27T04:54:49.157Z,1.47
2022-09-27T04:57:17.307Z,2.23
2022-09-27T04:59:44.209Z,1.97
2022-09-27T05:02:12.400Z,1.80
2022-09-27T05:04:59.216Z,3.23
2022-09-27T05:07:29.661Z,1.80
2022-09-27T05:10:03.122Z,1.30
2022-09-27T05:12:30.365Z,1.20
2022-09-27T05:15:00.009Z,1.47
2022-09-27T05:17:58.876Z,2.67
2022-09-27T05:21:01.004Z,1.80
2022-09-27T05:23:34.177Z,2.63
2022-09-27T05:26:07.909Z,2.07
2022-09-27T05:28:35.227Z,2.03
2022-09-27T05:31:02.877Z,1.43
2022-09-27T05:33:31.249Z,2.13
2022-09-27T05:36:16.769Z,1.57
2022-09-27T05:38:43.832Z,1.10
2022-09-27T05:41:10.721Z,1.87
2022-09-27T05:43:39.748Z,2.03
2022-09-27T05:46:06.559Z,2.70
2022-09-27T05:48:34.137Z,2.13
2022-09-27T05:51:06.510Z,2.80
2022-09-27T05:53:36.686Z,2.60
2022-09-27T05:56:06.429Z,2.47
2022-09-27T05:58:59.957Z,1.90
2022-09-27T06:01:32.446Z,3.43
2022-09-27T06:04:18.884Z,1.30
2022-09-27T06:07:05.070Z,2.00
2022-09-27T06:09:32.153Z,2.27
2022-09-27T06:11:59.079Z,2.50
2022-09-27T06:14:27.029Z,3.00
2022-09-27T06:17:00.908Z,3.87
2022-09-27T06:19:32.281Z,2.67
2022-09-27T06:21:58.986Z,2.17
2022-09-27T06:24:33.842Z,1.53
2022-09-27T06:27:07.965Z,3.73
2022-09-27T06:29:45.017Z,2.37
2022-09-27T06:32:19.975Z,2.37
2022-09-27T06:34:52.818Z,2.40
2022-09-27T06:37:19.621Z,1.97
2022-09-27T06:39:48.987Z,3.53
2022-09-27T06:42:52.302Z,5.53
2022-09-27T06:45:42.817Z,2.77
2022-09-27T06:48:42.517Z,2.00
2022-09-27T06:51:16.474Z,2.80
2022-09-27T06:53:43.555Z,3.70
2022-09-27T06:56:10.477Z,2.63
2022-09-27T06:59:07.561Z,3.67
2022-09-27T07:01:44.769Z,3.37
2022-09-27T07:04:32.622Z,3.87
2022-09-27T07:07:00.141Z,3.67
2022-09-27T07:09:31.513Z,3.33
2022-09-27T07:11:58.602Z,2.67
2022-09-27T07:14:26.626Z,3.23
2022-09-27T07:16:54.361Z,1.53
2022-09-27T07:19:21.380Z,2.30
2022-09-27T07:21:51.748Z,2.63
2022-09-27T07:24:18.720Z,2.57
2022-09-27T07:26:48.090Z,2.83
2022-09-27T07:29:16.634Z,3.17
2022-09-27T07:31:43.849Z,1.90
2022-09-27T07:34:11.215Z,1.80
2022-09-27T07:36:38.350Z,4.13
2022-09-27T07:39:05.201Z,2.77
2022-09-27T07:41:33.727Z,2.30
2022-09-27T07:44:00.709Z,2.80
2022-09-27T07:46:30.433Z,2.93
2022-09-27T07:49:08.299Z,3.37
2022-09-27T07:51:35.333Z,1.77
2022-09-27T07:54:08.939Z,2.83
2022-09-27T07:56:35.810Z,2.17
2022-09-27T07:59:04.634Z,1.90
2022-09-27T08:01:31.730Z,1.80
2022-09-27T08:03:58.613Z,2.37
2022-09-27T08:06:26.120Z,2.07
2022-09-27T08:08:54.866Z,3.10
2022-09-27T08:11:22.095Z,2.67
2022-09-27T08:13:52.382Z,1.83
2022-09-27T08:16:22.613Z,1.53
2022-09-27T08:19:07.947Z,2.90
2022-09-27T08:21:59.029Z,1.80
2022-09-27T08:24:31.225Z,2.50
2022-09-27T08:27:21.422Z,1.73
2022-09-27T08:29:57.576Z,2.57
2022-09-27T08:32:24.766Z,1.43
2022-09-27T08:34:53.058Z,2.87
2022-09-27T08:37:21.578Z,1.60
2022-09-27T08:39:49.362Z,2.37
2022-09-27T08:42:42.176Z,1.23
2022-09-27T08:45:19.843Z,3.10
2022-09-27T08:47:52.912Z,1.03
2022-09-27T08:50:30.281Z,0.93
2022-09-27T08:53:14.882Z,2.97
2022-09-27T08:55:47.970Z,1.00
2022-09-27T08:58:49.421Z,0.63
2022-09-27T09:01:26.328Z,2.20
2022-09-27T09:04:04.289Z,0.93
2022-09-27T09:06:42.923Z,1.40
2022-09-27T09:09:45.309Z,1.80
2022-09-27T09:12:47.168Z,0.80
2022-09-27T09:15:32.326Z,1.13
2022-09-27T09:18:12.089Z,1.40
2022-09-27T09:21:23.749Z,1.50
2022-09-27T09:24:11.173Z,1.07
2022-09-27T09:26:51.525Z,0.67
2022-09-27T09:29:20.969Z,1.07
2022-09-27T09:32:32.569Z,2.73
2022-09-27T09:35:07.016Z,0.97
2022-09-27T09:37:40.992Z,1.23
2022-09-27T09:40:34.184Z,0.70
2022-09-27T09:43:25.134Z,1.00
2022-09-27T09:46:25.156Z,0.40
2022-09-27T09:48:59.168Z,1.17
2022-09-27T09:51:43.562Z,1.00
2022-09-27T09:54:32.676Z,0.90
2022-09-27T09:57:25.580Z,0.40
2022-09-27T10:00:01.274Z,0.90
2022-09-27T10:02:34.810Z,0.73
2022-09-27T10:05:16.564Z,0.80
2022-09-27T10:07:44.506Z,1.17
2022-09-27T10:10:17.006Z,0.80
2022-09-27T10:13:03.433Z,1.67
2022-09-27T10:15:35.098Z,1.07
2022-09-27T10:18:01.965Z,1.60
2022-09-27T10:20:50.034Z,0.60
2022-09-27T10:23:21.118Z,2.03
2022-09-27T10:26:13.902Z,1.73
2022-09-27T10:28:46.008Z,0.67
2022-09-27T10:31:18.203Z,1.90
2022-09-27T10:34:05.706Z,0.77
2022-09-27T10:36:42.917Z,1.13
2022-09-27T10:39:22.409Z,1.87
2022-09-27T10:41:49.755Z,0.57
2022-09-27T10:44:27.165Z,0.70
2022-09-27T10:47:09.775Z,1.83
2022-09-27T10:49:47.198Z,2.30
2022-09-27T10:52:27.970Z,0.87
2022-09-27T10:54:56.640Z,0.77
2022-09-27T10:57:28.416Z,0.37
2022-09-27T10:59:59.456Z,0.93
2022-09-27T11:02:34.743Z,0.80
2022-09-27T11:05:15.992Z,1.47
2022-09-27T11:07:57.973Z,0.63
2022-09-27T11:10:41.255Z,0.73
2022-09-27T11:13:12.906Z,1.23
2022-09-27T11:15:51.023Z,1.37
2022-09-27T11:18:42.594Z,2.53
2022-09-27T11:21:48.029Z,1.57
2022-09-27T11:24:33.599Z,0.67
2022-09-27T11:27:28.740Z,1.33
2022-09-27T11:30:08.792Z,0.97
2022-09-27T11:33:07.290Z,0.60
2022-09-27T11:36:00.324Z,1.00
2022-09-27T11:38:52.172Z,0.87
2022-09-27T11:41:43.064Z,1.03
2022-09-27T11:44:17.839Z,0.50
2022-09-27T11:46:57.036Z,1.33
2022-09-27T11:50:02.397Z,0.93
2022-09-27T11:53:09.365Z,0.20
2022-09-27T11:55:52.165Z,1.40
2022-09-27T11:58:35.606Z,1.00
2022-09-27T12:01:18.516Z,0.83
2022-09-27T12:04:17.525Z,1.17
2022-09-27T12:07:07.905Z,1.10
2022-09-27T12:09:39.557Z,1.63
2022-09-27T12:12:12.059Z,1.13
2022-09-27T12:14:51.225Z,1.43
2022-09-27T12:17:26.308Z,0.67
2022-09-27T12:20:03.216Z,1.07
2022-09-27T12:23:00.994Z,1.97
2022-09-27T12:25:42.837Z,0.80
2022-09-27T12:28:40.787Z,1.57
2022-09-27T12:31:33.540Z,1.17
2022-09-27T12:34:06.505Z,1.00
2022-09-27T12:36:38.754Z,1.83
2022-09-27T12:39:13.285Z,1.13
2022-09-27T12:41:49.538Z,1.50
2022-09-27T12:44:27.137Z,1.33
2022-09-27T12:47:09.601Z,0.77
2022-09-27T12:49:46.311Z,2.30
2022-09-27T12:52:23.196Z,2.53
2022-09-27T12:55:23.921Z,1.07
2022-09-27T12:58:17.045Z,1.10
2022-09-27T13:00:59.009Z,1.67
2022-09-27T13:03:53.382Z,1.50
2022-09-27T13:06:56.792Z,2.13
2022-09-27T13:09:38.214Z,0.90
2022-09-27T13:12:11.050Z,1.30
2022-09-27T13:15:03.494Z,0.90
2022-09-27T13:17:43.325Z,1.80
2022-09-27T13:20:31.755Z,1.70
2022-09-27T13:23:03.094Z,1.33
2022-09-27T13:25:56.487Z,2.70
2022-09-27T13:28:48.150Z,1.33
2022-09-27T13:31:53.604Z,0.90
2022-09-27T13:34:56.821Z,0.47
2022-09-27T13:37:36.961Z,0.70
2022-09-27T13:40:30.462Z,1.27
2022-09-27T13:43:34.869Z,2.10
2022-09-27T13:46:16.654Z,1.80
2022-09-27T13:49:15.947Z,0.87
2022-09-27T13:52:14.833Z,1.60
2022-09-27T13:54:54.423Z,2.97
2022-09-27T13:57:56.754Z,1.73
2022-09-27T14:00:50.057Z,2.30
2022-09-27T14:03:51.255Z,2.90
2022-09-27T14:06:32.227Z,0.80
2022-09-27T14:09:06.138Z,2.37
2022-09-27T14:11:40.342Z,2.20
2022-09-27T14:14:17.909Z,2.47
2022-09-27T14:16:50.104Z,1.30
2022-09-27T14:19:22.657Z,2.40
2022-09-27T14:21:57.397Z,1.33
2022-09-27T14:24:36.910Z,1.87
2022-09-27T14:27:24.977Z,2.63
2022-09-27T14:30:06.122Z,1.47
2022-09-27T14:32:48.206Z,2.87
2022-09-27T14:35:40.645Z,2.07
2022-09-27T14:38:35.972Z,1.50
2022-09-27T14:41:07.116Z,2.97
2022-09-27T14:43:35.956Z,1.10
2022-09-27T14:46:06.839Z,1.33
2022-09-27T14:48:39.129Z,1.93
2022-09-27T14:51:14.338Z,2.77
2022-09-27T14:53:45.475Z,1.83
2022-09-27T14:56:22.433Z,2.17
2022-09-27T14:59:02.215Z,1.43
2022-09-27T15:01:30.187Z,1.80
2022-09-27T15:04:08.317Z,1.90
2022-09-27T15:06:38.723Z,1.10
2022-09-27T15:09:07.007Z,2.23
2022-09-27T15:11:34.965Z,0.83
2022-09-27T15:14:03.721Z,0.97
2022-09-27T15:16:31.242Z,2.13
2022-09-27T15:19:22.132Z,0.47
2022-09-27T15:21:49.103Z,0.67
2022-09-27T15:24:39.393Z,1.53
2022-09-27T15:27:22.049Z,1.37
2022-09-27T15:29:57.966Z,0.67
2022-09-27T15:32:29.360Z,2.27
2022-09-27T15:34:57.270Z,2.97
2022-09-27T15:37:28.681Z,1.57
2022-09-27T15:39:56.898Z,2.47
2022-09-27T15:42:23.598Z,1.30
2022-09-27T15:44:52.813Z,1.23
2022-09-27T15:47:31.946Z,1.77
2022-09-27T15:49:59.569Z,0.77
2022-09-27T15:52:52.242Z,0.80
2022-09-27T15:55:22.793Z,1.10
2022-09-27T15:58:02.060Z,1.13
2022-09-27T16:00:30.049Z,2.73
2022-09-27T16:02:57.098Z,1.53
2022-09-27T16:05:24.400Z,1.87
2022-09-27T16:07:51.536Z,2.27
2022-09-27T16:10:20.513Z,2.00
2022-09-27T16:12:47.549Z,2.00
2022-09-27T16:15:15.245Z,2.80
2022-09-27T16:17:44.922Z,1.97
2022-09-27T16:20:25.006Z,1.50
2022-09-27T16:22:53.065Z,1.13
2022-09-27T16:25:20.733Z,1.30
2022-09-27T16:27:48.189Z,2.47
2022-09-27T16:30:15.714Z,3.67
2022-09-27T16:32:44.433Z,4.50
2022-09-27T16:35:12.991Z,2.77
2022-09-27T16:37:40.241Z,2.53
2022-09-27T16:40:08.568Z,2.50
2022-09-27T16:42:35.662Z,2.30
2022-09-27T16:45:08.899Z,2.60
2022-09-27T16:47:37.965Z,1.97
2022-09-27T16:50:23.505Z,3.43
2022-09-27T16:52:52.197Z,1.20
2022-09-27T16:55:20.686Z,1.23
2022-09-27T16:57:48.023Z,3.20
2022-09-27T17:00:15.601Z,1.63
2022-09-27T17:02:43.881Z,1.60
2022-09-27T17:05:11.351Z,2.27
2022-09-27T17:07:37.980Z,2.17
2022-09-27T17:10:05.594Z,1.67
2022-09-27T17:12:32.995Z,5.93
2022-09-27T17:14:59.945Z,4.57
2022-09-27T17:17:26.791Z,3.63
2022-09-27T17:19:53.479Z,1.63
2022-09-27T17:22:20.208Z,2.57
2022-09-27T17:24:46.818Z,2.50
2022-09-27T17:27:13.656Z,3.53
2022-09-27T17:29:40.533Z,2.30
2022-09-27T17:32:08.522Z,2.30
2022-09-27T17:34:36.357Z,2.87
2022-09-27T17:37:03.123Z,1.67
2022-09-27T17:39:30.245Z,2.40
2022-09-27T17:41:58.344Z,0.73
2022-09-27T17:44:26.913Z,1.00
2022-09-27T17:47:13.608Z,1.17
2022-09-27T17:49:59.343Z,1.00
2022-09-27T17:52:26.750Z,1.20
2022-09-27T17:54:55.580Z,1.33
2022-09-27T17:57:22.361Z,2.10
2022-09-27T17:59:49.030Z,2.40
2022-09-27T18:02:16.257Z,1.80
2022-09-27T18:04:43.093Z,2.57
2022-09-27T18:07:13.046Z,1.83
2022-09-27T18:09:39.726Z,1.90
2022-09-27T18:12:07.465Z,3.27
2022-09-27T18:14:34.689Z,1.77
2022-09-27T18:17:01.493Z,1.50
2022-09-27T18:19:28.238Z,2.93
2022-09-27T18:21:55.257Z,1.10
2022-09-27T18:24:21.897Z,2.53
2022-09-27T18:26:49.112Z,1.77
2022-09-27T18:29:19.272Z,2.83
2022-09-27T18:31:48.925Z,2.53
2022-09-27T18:34:19.032Z,1.87
2022-09-27T18:36:46.256Z,3.17
2022-09-27T18:39:18.076Z,2.70
2022-09-27T18:41:46.423Z,1.50
2022-09-27T18:44:14.430Z,1.70
2022-09-27T18:46:41.361Z,2.27
2022-09-27T18:49:10.668Z,1.47
2022-09-27T18:51:41.801Z,2.67
2022-09-27T18:54:16.483Z,2.77
2022-09-27T18:56:43.640Z,5.10
2022-09-27T18:59:10.964Z,2.60
2022-09-27T19:01:40.131Z,1.90
2022-09-27T19:04:08.935Z,2.20
2022-09-27T19:06:36.647Z,1.53
2022-09-27T19:09:04.973Z,2.87
2022-09-27T19:11:33.825Z,3.03
2022-09-27T19:14:01.268Z,4.53
2022-09-27T19:16:29.605Z,4.50
2022-09-27T19:18:56.520Z,4.03
2022-09-27T19:21:25.941Z,3.80
2022-09-27T19:23:54.308Z,3.53
2022-09-27T19:26:23.250Z,2.43
2022-09-27T19:28:50.509Z,4.03
2022-09-27T19:31:20.413Z,4.00
2022-09-27T19:33:47.607Z,3.00
2022-09-27T19:36:16.346Z,2.60
2022-09-27T19:38:43.683Z,3.77
2022-09-27T19:41:12.497Z,2.60
2022-09-27T19:43:39.975Z,4.23
2022-09-27T19:46:07.877Z,6.87
2022-09-27T19:48:40.998Z,7.10
2022-09-27T19:51:09.418Z,5.67
2022-09-27T19:53:36.129Z,4.90
2022-09-27T19:56:05.615Z,4.10
2022-09-27T19:58:34.244Z,5.47
2022-09-27T20:01:02.369Z,5.13
2022-09-27T20:03:29.775Z,5.00
2022-09-27T20:05:58.226Z,3.87
2022-09-27T20:08:26.083Z,4.97
2022-09-27T20:11:06.641Z,4.30
2022-09-27T20:13:35.264Z,2.40
2022-09-27T20:16:12.662Z,2.80
2022-09-27T20:19:01.070Z,4.47
2022-09-27T20:21:32.818Z,3.53
2022-09-27T20:24:01.904Z,4.17
2022-09-27T20:26:30.487Z,2.07
2022-09-27T20:28:59.340Z,2.67
2022-09-27T20:31:33.735Z,2.73
2022-09-27T20:34:01.264Z,5.77
2022-09-27T20:36:33.014Z,2.70
2022-09-27T20:39:03.155Z,3.20
2022-09-27T20:41:32.973Z,5.00
2022-09-27T20:44:05.429Z,4.13
2022-09-27T20:46:33.488Z,4.00
2022-09-27T20:49:03.074Z,4.00
2022-09-27T20:51:32.135Z,3.53
2022-09-27T20:54:00.284Z,5.07
2022-09-27T20:56:31.805Z,4.03
2022-09-27T20:59:00.857Z,3.47
2022-09-27T21:01:29.262Z,4.60
2022-09-27T21:03:58.766Z,6.77
2022-09-27T21:06:27.122Z,5.00
2022-09-27T21:08:54.497Z,4.33
2022-09-27T21:11:22.529Z,5.53
2022-09-27T21:13:50.455Z,3.40
2022-09-27T21:16:25.219Z,3.87
2022-09-27T21:18:56.774Z,4.17
2022-09-27T21:21:24.550Z,4.00
2022-09-27T21:23:56.636Z,3.87
2022-09-27T21:26:24.618Z,3.60
2022-09-27T21:28:53.561Z,3.63
2022-09-27T21:31:25.248Z,4.13
2022-09-27T21:33:54.470Z,5.70
2022-09-27T21:36:23.165Z,3.27
2022-09-27T21:38:50.560Z,3.67
2022-09-27T21:41:17.976Z,5.80
2022-09-27T21:43:47.917Z,3.27
2022-09-27T21:46:16.371Z,2.53
2022-09-27T21:48:46.361Z,2.90
2022-09-27T21:51:19.314Z,2.73
2022-09-27T21:53:54.477Z,2.37
2022-09-27T21:56:22.537Z,3.10
2022-09-27T21:58:49.711Z,2.27
2022-09-27T22:01:25.670Z,2.33
2022-09-27T22:03:54.124Z,3.43
2022-09-27T22:06:23.829Z,2.50
2022-09-27T22:08:51.790Z,2.63
2022-09-27T22:11:30.696Z,2.07
2022-09-27T22:13:57.689Z,1.53
2022-09-27T22:16:26.905Z,1.73
2022-09-27T22:18:55.677Z,2.97
2022-09-27T22:21:25.485Z,4.30
2022-09-27T22:23:56.293Z,3.20
2022-09-27T22:26:26.785Z,1.87
2022-09-27T22:28:54.400Z,1.77
2022-09-27T22:31:22.231Z,1.17
2022-09-27T22:33:54.224Z,3.70
2022-09-27T22:36:21.992Z,2.80
2022-09-27T22:38:49.297Z,2.10
2022-09-27T22:41:16.377Z,2.93
2022-09-27T22:43:43.422Z,2.10
2022-09-27T22:46:10.672Z,3.17
2022-09-27T22:48:37.731Z,2.20
2022-09-27T22:51:04.884Z,1.83
2022-09-27T22:53:32.350Z,1.17
2022-09-27T22:56:04.312Z,2.00
2022-09-27T22:58:32.024Z,2.73
2022-09-27T23:00:59.569Z,2.30
2022-09-27T23:03:26.252Z,3.07
2022-09-27T23:05:53.238Z,2.13
2022-09-27T23:08:19.995Z,2.00
2022-09-27T23:10:46.753Z,1.87
2022-09-27T23:13:13.357Z,1.93
2022-09-27T23:15:40.050Z,3.83
2022-09-27T23:18:06.916Z,2.30
2022-09-27T23:20:34.439Z,2.60
2022-09-27T23:23:01.785Z,2.80
2022-09-27T23:25:28.443Z,2.07
2022-09-27T23:27:55.781Z,2.30
2022-09-27T23:30:24.430Z,2.33
2022-09-27T23:32:55.597Z,2.03
2022-09-27T23:35:23.240Z,2.20
2022-09-27T23:37:53.226Z,3.00
2022-09-27T23:40:19.925Z,1.43
2022-09-27T23:42:46.870Z,2.70
2022-09-27T23:45:15.769Z,2.67
2022-09-27T23:47:42.399Z,2.63
2022-09-27T23:50:09.549Z,1.80
2022-09-27T23:52:36.141Z,1.97
2022-09-27T23:55:03.086Z,3.20
2022-09-27T23:57:31.033Z,2.27
2022-09-27T23:59:57.614Z,2.40
